createdAt,value
2023-04-07T00:01:20.659Z,38.80
2023-04-07T00:02:21.496Z,38.70
2023-04-07T00:03:22.398Z,39.70
2023-04-07T00:04:23.399Z,38.60
2023-04-07T00:05:24.114Z,38.60
2023-04-07T00:06:24.822Z,38.90
2023-04-07T00:07:25.525Z,40.00
2023-04-07T00:08:26.233Z,39.00
2023-04-07T00:09:26.937Z,39.30
2023-04-07T00:10:27.645Z,41.20
2023-04-07T00:11:28.386Z,39.80
2023-04-07T00:12:29.071Z,40.20
2023-04-07T00:13:30.814Z,40.40
2023-04-07T00:14:30.572Z,41.10
2023-04-07T00:15:31.291Z,40.90
2023-04-07T00:16:32.384Z,42.20
2023-04-07T00:17:32.596Z,39.90
2023-04-07T00:18:33.268Z,39.60
2023-04-07T00:19:33.970Z,39.70
2023-04-07T00:20:34.681Z,41.00
2023-04-07T00:21:35.386Z,40.80
2023-04-07T00:22:36.089Z,40.20
2023-04-07T00:23:36.794Z,42.40
2023-04-07T00:24:37.501Z,43.50
2023-04-07T00:25:38.207Z,41.20
2023-04-07T00:26:39.378Z,41.10
2023-04-07T00:27:39.578Z,41.10
2023-04-07T00:28:40.276Z,43.50
2023-04-07T00:29:40.958Z,44.50
2023-04-07T00:30:41.665Z,42.90
2023-04-07T00:31:42.574Z,41.50
2023-04-07T00:32:43.279Z,42.90
2023-04-07T00:33:44.204Z,43.70
2023-04-07T00:34:45.054Z,43.30
2023-04-07T00:35:45.799Z,43.60
2023-04-07T00:36:46.497Z,44.30
2023-04-07T00:37:47.194Z,44.20
2023-04-07T00:38:47.896Z,43.80
2023-04-07T00:39:48.610Z,43.50
2023-04-07T00:40:49.301Z,42.80
2023-04-07T00:41:50.072Z,44.70
2023-04-07T00:42:50.840Z,42.70
2023-04-07T00:43:51.920Z,44.40
2023-04-07T00:44:52.300Z,44.80
2023-04-07T00:45:53.097Z,47.20
2023-04-07T00:46:53.967Z,44.70
2023-04-07T00:47:54.730Z,44.90
2023-04-07T00:48:55.447Z,44.90
2023-04-07T00:49:56.151Z,47.10
2023-04-07T00:50:56.924Z,49.10
2023-04-07T00:51:57.693Z,50.90
2023-04-07T00:52:58.337Z,49.10
2023-04-07T00:53:59.036Z,47.70
2023-04-07T00:54:59.740Z,48.90
2023-04-07T00:57:49.367Z,50.00
2023-04-07T00:58:50.025Z,49.40
2023-04-07T00:59:50.739Z,50.50
2023-04-07T01:00:51.430Z,50.10
2023-04-07T01:01:52.224Z,49.30
2023-04-07T01:02:53.265Z,49.60
2023-04-07T01:03:54.038Z,52.30
2023-04-07T01:04:54.101Z,51.90
2023-04-07T01:05:54.806Z,52.10
2023-04-07T01:06:55.505Z,51.60
2023-04-07T01:07:56.215Z,51.00
2023-04-07T01:08:56.925Z,51.00
2023-04-07T01:09:57.630Z,53.40
2023-04-07T01:10:58.318Z,52.70
2023-04-07T01:11:59.025Z,51.20
2023-04-07T01:12:59.784Z,52.80
2023-04-07T01:14:00.478Z,53.90
2023-04-07T01:15:01.192Z,52.50
2023-04-07T01:16:01.946Z,52.20
2023-04-07T01:17:02.625Z,54.40
2023-04-07T01:18:03.560Z,52.40
2023-04-07T01:19:04.215Z,52.10
2023-04-07T01:20:04.938Z,54.70
2023-04-07T01:21:05.646Z,54.10
2023-04-07T01:22:06.360Z,54.10
2023-04-07T01:23:07.060Z,56.20
2023-04-07T01:24:07.759Z,56.50
2023-04-07T01:25:08.468Z,53.30
2023-04-07T01:26:09.167Z,52.70
2023-04-07T01:27:09.882Z,55.00
2023-04-07T01:28:10.615Z,53.70
2023-04-07T01:29:11.310Z,53.60
2023-04-07T01:30:11.976Z,53.60
2023-04-07T01:31:12.834Z,54.10
2023-04-07T01:32:13.559Z,53.20
2023-04-07T01:33:14.285Z,54.90
2023-04-07T01:34:14.972Z,53.70
2023-04-07T01:35:15.672Z,54.70
2023-04-07T01:36:16.401Z,53.70
2023-04-07T01:37:17.116Z,53.50
2023-04-07T01:38:17.834Z,54.60
2023-04-07T01:39:18.514Z,55.00
2023-04-07T01:40:19.212Z,55.90
2023-04-07T01:41:19.933Z,56.50
2023-04-07T01:42:20.645Z,55.40
2023-04-07T01:43:21.536Z,55.90
2023-04-07T01:44:22.224Z,58.30
2023-04-07T01:45:22.937Z,55.90
2023-04-07T01:46:23.635Z,55.20
2023-04-07T01:47:24.480Z,57.00
2023-04-07T01:48:25.559Z,57.70
2023-04-07T01:49:25.785Z,57.50
2023-04-07T01:50:26.501Z,56.20
2023-04-07T01:51:27.191Z,57.80
2023-04-07T01:52:27.901Z,56.10
2023-04-07T01:53:28.625Z,55.90
2023-04-07T01:54:29.473Z,57.00
2023-04-07T01:55:51.141Z,57.60
2023-04-07T01:56:30.830Z,56.10
2023-04-07T01:57:31.528Z,58.10
2023-04-07T01:58:32.259Z,57.30
2023-04-07T01:59:32.966Z,56.90
2023-04-07T02:00:33.665Z,57.40
2023-04-07T02:01:34.467Z,57.50
2023-04-07T02:02:35.252Z,55.20
2023-04-07T02:03:36.199Z,58.80
2023-04-07T02:04:36.884Z,57.50
2023-04-07T02:05:37.570Z,56.60
2023-04-07T02:06:38.273Z,57.30
2023-04-07T02:07:38.977Z,57.20
2023-04-07T02:08:39.688Z,57.80
2023-04-07T02:09:40.392Z,61.10
2023-04-07T02:10:41.122Z,58.80
2023-04-07T02:11:41.831Z,56.80
2023-04-07T02:12:42.539Z,56.40
2023-04-07T02:13:43.530Z,57.10
2023-04-07T02:14:44.240Z,56.20
2023-04-07T02:15:44.930Z,58.90
2023-04-07T02:16:47.539Z,57.30
2023-04-07T02:17:46.548Z,58.00
2023-04-07T02:18:47.260Z,56.20
2023-04-07T02:20:08.946Z,56.50
2023-04-07T02:20:48.645Z,56.30
2023-04-07T02:21:49.369Z,57.70
2023-04-07T02:22:50.055Z,54.00
2023-04-07T02:23:51.009Z,54.60
2023-04-07T02:24:51.721Z,59.20
2023-04-07T02:25:52.424Z,57.30
2023-04-07T02:26:53.157Z,57.00
2023-04-07T02:27:53.838Z,60.00
2023-04-07T02:28:54.570Z,57.40
2023-04-07T02:29:55.244Z,59.40
2023-04-07T02:30:55.947Z,59.40
2023-04-07T02:31:56.700Z,56.90
2023-04-07T02:32:57.408Z,59.30
2023-04-07T02:33:58.541Z,59.20
2023-04-07T02:34:58.757Z,57.70
2023-04-07T02:35:59.454Z,60.50
2023-04-07T02:37:21.164Z,57.90
2023-04-07T02:38:00.870Z,59.30
2023-04-07T02:39:01.572Z,61.60
2023-04-07T02:40:02.339Z,60.60
2023-04-07T02:41:03.053Z,60.20
2023-04-07T02:42:03.780Z,59.40
2023-04-07T02:43:04.477Z,60.70
2023-04-07T02:44:05.544Z,59.70
2023-04-07T02:45:05.723Z,62.30
2023-04-07T02:46:06.443Z,57.10
2023-04-07T02:47:07.130Z,61.80
2023-04-07T02:48:07.825Z,58.40
2023-04-07T02:49:08.562Z,56.90
2023-04-07T02:50:09.245Z,57.90
2023-04-07T02:51:09.946Z,58.10
2023-04-07T02:52:10.655Z,55.80
2023-04-07T02:53:11.387Z,56.00
2023-04-07T02:54:12.101Z,52.70
2023-04-07T02:55:12.810Z,56.70
2023-04-07T02:56:13.530Z,55.00
2023-04-07T02:57:14.240Z,54.50
2023-04-07T02:58:14.942Z,54.90
2023-04-07T02:59:34.052Z,54.00
2023-04-07T03:00:16.233Z,53.50
2023-04-07T03:01:16.985Z,53.70
2023-04-07T03:02:17.701Z,54.60
2023-04-07T03:03:18.579Z,54.50
2023-04-07T03:04:19.746Z,53.80
2023-04-07T03:05:20.047Z,52.30
2023-04-07T03:06:20.778Z,53.10
2023-04-07T03:07:21.467Z,52.70
2023-04-07T03:08:22.169Z,52.00
2023-04-07T03:09:22.891Z,51.90
2023-04-07T03:10:23.581Z,52.90
2023-04-07T03:11:24.316Z,51.90
2023-04-07T03:12:25.026Z,51.40
2023-04-07T03:13:25.713Z,50.20
2023-04-07T03:14:26.417Z,51.30
2023-04-07T03:15:27.149Z,49.30
2023-04-07T03:16:27.878Z,50.70
2023-04-07T03:17:28.579Z,50.80
2023-04-07T03:18:29.279Z,50.70
2023-04-07T03:19:50.983Z,51.10
2023-04-07T03:20:30.673Z,52.50
2023-04-07T03:21:31.392Z,54.20
2023-04-07T03:22:32.101Z,50.40
2023-04-07T03:23:32.806Z,51.60
2023-04-07T03:24:33.501Z,50.90
2023-04-07T03:25:34.265Z,51.80
2023-04-07T03:26:34.982Z,51.10
2023-04-07T03:27:35.697Z,50.90
2023-04-07T03:28:36.370Z,51.60
2023-04-07T03:29:37.118Z,48.70
2023-04-07T03:30:37.894Z,49.30
2023-04-07T03:31:38.564Z,50.10
2023-04-07T03:32:39.303Z,50.10
2023-04-07T03:33:39.993Z,51.00
2023-04-07T03:34:40.697Z,48.70
2023-04-07T03:35:41.447Z,52.10
2023-04-07T03:36:42.118Z,51.10
2023-04-07T03:37:42.848Z,50.70
2023-04-07T03:38:43.543Z,51.80
2023-04-07T03:39:44.242Z,54.00
2023-04-07T03:40:44.965Z,49.60
2023-04-07T03:41:45.672Z,52.30
2023-04-07T03:44:35.201Z,51.60
2023-04-07T03:45:35.886Z,50.20
2023-04-07T03:46:36.654Z,52.60
2023-04-07T03:47:37.505Z,51.50
2023-04-07T03:48:38.179Z,51.70
2023-04-07T03:49:38.954Z,52.00
2023-04-07T03:50:39.628Z,52.00
2023-04-07T03:51:40.345Z,52.90
2023-04-07T03:52:41.063Z,53.00
2023-04-07T03:53:41.785Z,51.40
2023-04-07T03:54:42.457Z,52.20
2023-04-07T03:55:43.164Z,54.10
2023-04-07T03:56:43.853Z,54.10
2023-04-07T03:57:44.564Z,54.00
2023-04-07T03:58:45.267Z,52.80
2023-04-07T03:59:45.976Z,53.20
2023-04-07T04:00:46.670Z,53.70
2023-04-07T04:01:47.419Z,54.10
2023-04-07T04:02:48.149Z,54.60
2023-04-07T04:03:49.008Z,55.00
2023-04-07T04:04:49.847Z,56.00
2023-04-07T04:05:50.574Z,56.10
2023-04-07T04:06:51.312Z,56.70
2023-04-07T04:07:52.018Z,55.60
2023-04-07T04:08:52.727Z,58.30
2023-04-07T04:09:53.431Z,58.30
2023-04-07T04:10:54.158Z,57.60
2023-04-07T04:11:54.843Z,58.20
2023-04-07T04:12:55.552Z,57.10
2023-04-07T04:13:56.308Z,57.30
2023-04-07T04:14:57.013Z,58.60
2023-04-07T04:15:57.747Z,58.10
2023-04-07T04:16:58.449Z,56.30
2023-04-07T04:17:59.175Z,59.90
2023-04-07T04:18:59.828Z,57.20
2023-04-07T04:20:00.552Z,57.70
2023-04-07T04:21:01.246Z,56.90
2023-04-07T04:22:01.975Z,56.20
2023-04-07T04:23:02.654Z,58.30
2023-04-07T04:24:03.369Z,56.40
2023-04-07T04:25:04.403Z,55.20
2023-04-07T04:26:04.624Z,57.50
2023-04-07T04:27:05.339Z,55.70
2023-04-07T04:28:06.023Z,57.30
2023-04-07T04:29:06.736Z,55.80
2023-04-07T04:30:07.479Z,57.40
2023-04-07T04:31:08.206Z,54.80
2023-04-07T04:32:08.882Z,54.50
2023-04-07T04:33:09.572Z,54.40
2023-04-07T04:34:10.297Z,53.10
2023-04-07T04:35:11.006Z,51.80
2023-04-07T04:36:11.792Z,51.00
2023-04-07T04:37:12.549Z,50.00
2023-04-07T04:38:13.236Z,47.60
2023-04-07T04:39:13.935Z,49.00
2023-04-07T04:40:14.642Z,49.20
2023-04-07T04:41:15.347Z,48.70
2023-04-07T04:42:16.045Z,50.20
2023-04-07T04:43:52.409Z,50.30
2023-04-07T04:44:17.605Z,47.70
2023-04-07T04:45:18.457Z,45.70
2023-04-07T04:46:19.133Z,48.70
2023-04-07T04:47:19.870Z,50.30
2023-04-07T04:48:20.562Z,46.70
2023-04-07T04:49:21.262Z,50.20
2023-04-07T04:50:22.426Z,45.80
2023-04-07T04:51:22.617Z,47.10
2023-04-07T04:52:23.342Z,47.70
2023-04-07T04:53:24.044Z,49.40
2023-04-07T04:54:24.750Z,48.50
2023-04-07T04:55:25.473Z,50.90
2023-04-07T04:56:26.190Z,49.10
2023-04-07T04:57:26.873Z,49.10
2023-04-07T04:58:27.578Z,51.70
2023-04-07T04:59:28.297Z,51.20
2023-04-07T05:00:29.424Z,53.00
2023-04-07T05:01:31.427Z,54.10
2023-04-07T05:02:30.644Z,52.70
2023-04-07T05:03:31.550Z,52.50
2023-04-07T05:04:32.924Z,53.90
2023-04-07T05:05:33.267Z,53.20
2023-04-07T05:06:34.007Z,55.70
2023-04-07T05:07:34.693Z,54.80
2023-04-07T05:08:35.377Z,58.10
2023-04-07T05:09:36.101Z,56.00
2023-04-07T05:10:36.910Z,58.30
2023-04-07T05:11:37.613Z,57.80
2023-04-07T05:12:38.332Z,56.60
2023-04-07T05:13:39.061Z,59.30
2023-04-07T05:14:39.782Z,56.40
2023-04-07T05:15:40.493Z,55.40
2023-04-07T05:16:41.409Z,59.40
2023-04-07T05:17:42.175Z,57.80
2023-04-07T05:18:42.830Z,57.80
2023-04-07T05:19:43.534Z,57.50
2023-04-07T05:20:44.417Z,59.00
2023-04-07T05:21:45.126Z,55.90
2023-04-07T05:22:45.850Z,56.90
2023-04-07T05:24:22.413Z,57.70
2023-04-07T05:24:47.115Z,57.60
2023-04-07T05:25:47.820Z,55.90
2023-04-07T05:26:48.525Z,57.60
2023-04-07T05:27:49.225Z,57.50
2023-04-07T05:28:49.933Z,58.90
2023-04-07T05:29:50.657Z,57.70
2023-04-07T05:30:51.409Z,58.20
2023-04-07T05:31:52.136Z,56.50
2023-04-07T05:32:52.951Z,56.40
2023-04-07T05:33:53.769Z,55.90
2023-04-07T05:34:54.440Z,59.20
2023-04-07T05:35:55.480Z,56.00
2023-04-07T05:36:55.632Z,54.50
2023-04-07T05:37:56.365Z,56.40
2023-04-07T05:38:57.057Z,56.50
2023-04-07T05:39:57.784Z,56.90
2023-04-07T05:40:58.911Z,58.30
2023-04-07T05:41:59.137Z,56.50
2023-04-07T05:42:59.817Z,58.50
2023-04-07T05:44:00.545Z,58.60
2023-04-07T05:45:01.286Z,58.90
2023-04-07T05:46:02.522Z,56.70
2023-04-07T05:47:02.689Z,59.90
2023-04-07T05:48:03.449Z,57.50
2023-04-07T05:49:18.395Z,56.80
2023-04-07T05:50:05.755Z,56.40
2023-04-07T05:51:05.924Z,55.10
2023-04-07T05:52:06.118Z,52.80
2023-04-07T05:53:06.841Z,55.50
2023-04-07T05:54:07.535Z,54.00
2023-04-07T05:55:08.231Z,53.30
2023-04-07T05:56:09.417Z,57.90
2023-04-07T05:57:09.625Z,55.00
2023-04-07T05:58:10.351Z,54.60
2023-04-07T05:59:11.077Z,54.40
2023-04-07T06:00:11.768Z,55.40
2023-04-07T06:01:12.915Z,52.80
2023-04-07T06:02:13.175Z,52.60
2023-04-07T06:03:14.014Z,51.70
2023-04-07T06:04:14.704Z,51.30
2023-04-07T06:05:15.440Z,49.90
2023-04-07T06:06:16.420Z,52.00
2023-04-07T06:07:17.119Z,53.30
2023-04-07T06:08:17.846Z,52.00
2023-04-07T06:09:39.559Z,52.90
2023-04-07T06:10:19.282Z,51.30
2023-04-07T06:11:20.033Z,51.30
2023-04-07T06:12:20.710Z,52.00
2023-04-07T06:13:21.415Z,50.70
2023-04-07T06:14:22.192Z,52.80
2023-04-07T06:15:22.876Z,51.10
2023-04-07T06:16:23.622Z,51.50
2023-04-07T06:17:24.332Z,52.50
2023-04-07T06:18:25.037Z,53.20
2023-04-07T06:19:25.719Z,52.20
2023-04-07T06:20:26.423Z,51.30
2023-04-07T06:21:27.423Z,50.10
2023-04-07T06:22:27.648Z,50.00
2023-04-07T06:23:28.372Z,50.70
2023-04-07T06:24:29.089Z,49.20
2023-04-07T06:25:29.802Z,48.50
2023-04-07T06:26:51.492Z,48.60
2023-04-07T06:27:31.196Z,49.60
2023-04-07T06:28:31.890Z,49.90
2023-04-07T06:29:32.593Z,49.80
2023-04-07T06:30:33.352Z,51.00
2023-04-07T06:31:34.024Z,48.00
2023-04-07T06:32:34.767Z,50.10
2023-04-07T06:33:35.457Z,46.70
2023-04-07T06:34:36.138Z,46.50
2023-04-07T06:35:36.854Z,48.20
2023-04-07T06:36:37.616Z,49.20
2023-04-07T06:37:38.412Z,49.80
2023-04-07T06:38:39.144Z,50.50
2023-04-07T06:39:39.828Z,48.80
2023-04-07T06:40:40.543Z,47.90
2023-04-07T06:41:41.243Z,47.10
2023-04-07T06:42:41.976Z,49.50
2023-04-07T06:43:42.655Z,48.90
2023-04-07T06:44:43.363Z,47.50
2023-04-07T06:45:44.100Z,45.20
2023-04-07T06:46:44.831Z,46.20
2023-04-07T06:47:45.583Z,46.70
2023-04-07T06:49:13.926Z,48.10
2023-04-07T06:49:47.133Z,46.50
2023-04-07T06:50:47.840Z,44.80
2023-04-07T06:51:48.538Z,45.80
2023-04-07T06:52:49.244Z,44.40
2023-04-07T06:53:50.207Z,42.90
2023-04-07T06:54:50.466Z,44.00
2023-04-07T06:55:51.163Z,44.70
2023-04-07T06:56:53.587Z,46.30
2023-04-07T06:57:52.703Z,44.80
2023-04-07T06:58:53.411Z,44.00
2023-04-07T06:59:54.113Z,44.30
2023-04-07T07:00:54.822Z,42.80
2023-04-07T07:01:55.625Z,41.10
2023-04-07T07:02:56.416Z,40.80
2023-04-07T07:03:57.295Z,40.00
2023-04-07T07:04:58.113Z,42.20
2023-04-07T07:05:58.810Z,42.40
2023-04-07T07:06:59.510Z,42.80
2023-04-07T07:08:00.224Z,43.80
2023-04-07T07:09:28.942Z,42.90
2023-04-07T07:10:01.642Z,42.90
2023-04-07T07:11:02.338Z,42.80
2023-04-07T07:12:04.288Z,41.40
2023-04-07T07:13:03.566Z,41.20
2023-04-07T07:14:04.274Z,40.10
2023-04-07T07:15:04.955Z,41.30
2023-04-07T07:16:05.701Z,42.00
2023-04-07T07:17:06.367Z,42.20
2023-04-07T07:18:07.569Z,42.10
2023-04-07T07:19:07.741Z,42.50
2023-04-07T07:20:08.491Z,43.30
2023-04-07T07:21:09.151Z,42.50
2023-04-07T07:22:09.879Z,41.80
2023-04-07T07:23:10.939Z,43.00
2023-04-07T07:24:11.123Z,43.80
2023-04-07T07:25:11.848Z,42.30
2023-04-07T07:26:12.542Z,41.10
2023-04-07T07:27:13.244Z,42.00
2023-04-07T07:28:14.431Z,41.90
2023-04-07T07:29:14.634Z,42.30
2023-04-07T07:30:15.347Z,41.40
2023-04-07T07:31:16.130Z,40.70
2023-04-07T07:32:16.807Z,42.90
2023-04-07T07:33:17.926Z,40.30
2023-04-07T07:34:18.146Z,41.50
2023-04-07T07:35:18.867Z,42.00
2023-04-07T07:36:40.545Z,41.00
2023-04-07T07:37:20.277Z,40.90
2023-04-07T07:38:20.970Z,40.30
2023-04-07T07:39:21.752Z,39.90
2023-04-07T07:40:22.424Z,41.10
2023-04-07T07:41:23.124Z,40.80
2023-04-07T07:42:23.813Z,39.00
2023-04-07T07:43:24.520Z,38.50
2023-04-07T07:44:25.236Z,41.30
2023-04-07T07:45:25.965Z,42.30
2023-04-07T07:46:26.695Z,39.50
2023-04-07T07:47:27.357Z,40.40
2023-04-07T07:48:28.073Z,41.10
2023-04-07T07:49:28.771Z,40.30
2023-04-07T07:50:29.508Z,41.90
2023-04-07T07:51:30.189Z,40.80
2023-04-07T07:52:30.891Z,42.00
2023-04-07T07:53:31.602Z,39.90
2023-04-07T07:54:53.322Z,40.90
2023-04-07T07:55:33.076Z,41.90
2023-04-07T07:56:33.760Z,42.10
2023-04-07T07:57:34.454Z,40.80
2023-04-07T07:58:35.169Z,41.10
2023-04-07T07:59:35.882Z,41.80
2023-04-07T08:00:36.576Z,41.40
2023-04-07T08:01:37.317Z,42.20
2023-04-07T08:02:38.042Z,42.50
2023-04-07T08:03:39.019Z,42.80
2023-04-07T08:04:39.368Z,42.20
2023-04-07T08:05:40.097Z,42.30
2023-04-07T08:06:40.742Z,41.00
2023-04-07T08:07:41.451Z,42.30
2023-04-07T08:08:42.162Z,42.60
2023-04-07T08:09:42.855Z,41.40
2023-04-07T08:10:43.601Z,41.20
2023-04-07T08:11:44.298Z,40.20
2023-04-07T08:12:44.998Z,42.20
2023-04-07T08:13:46.062Z,41.20
2023-04-07T08:15:07.488Z,41.60
2023-04-07T08:15:47.219Z,42.50
2023-04-07T08:16:47.903Z,41.70
2023-04-07T08:17:48.649Z,39.80
2023-04-07T08:18:49.458Z,39.50
2023-04-07T08:19:49.890Z,38.50
2023-04-07T08:20:50.610Z,38.20
2023-04-07T08:21:51.303Z,38.20
2023-04-07T08:22:52.029Z,38.60
2023-04-07T08:23:52.922Z,37.90
2023-04-07T08:24:53.627Z,39.80
2023-04-07T08:25:54.349Z,39.80
2023-04-07T08:26:55.036Z,38.20
2023-04-07T08:27:55.742Z,38.60
2023-04-07T08:28:56.925Z,40.60
2023-04-07T08:29:57.131Z,40.50
2023-04-07T08:30:57.848Z,41.80
2023-04-07T08:31:58.655Z,41.60
2023-04-07T08:32:59.383Z,41.40
2023-04-07T08:34:00.444Z,39.20
2023-04-07T08:35:00.630Z,42.50
2023-04-07T08:36:01.415Z,41.30
2023-04-07T08:38:50.928Z,40.30
2023-04-07T08:39:51.644Z,38.60
2023-04-07T08:40:52.349Z,37.50
2023-04-07T08:41:53.080Z,38.10
2023-04-07T08:42:53.757Z,41.20
2023-04-07T08:43:54.464Z,39.00
2023-04-07T08:44:55.644Z,39.10
2023-04-07T08:45:55.853Z,40.20
2023-04-07T08:46:56.596Z,41.70
2023-04-07T08:47:57.291Z,40.80
2023-04-07T08:48:57.985Z,40.20
2023-04-07T08:49:58.692Z,40.40
2023-04-07T08:50:59.404Z,41.70
2023-04-07T08:52:21.122Z,43.80
2023-04-07T08:53:00.801Z,43.50
2023-04-07T08:54:01.499Z,42.30
2023-04-07T08:55:02.204Z,41.80
2023-04-07T08:56:02.949Z,40.70
2023-04-07T08:57:03.639Z,42.90
2023-04-07T08:58:04.331Z,42.40
2023-04-07T08:59:05.030Z,42.70
2023-04-07T09:00:06.181Z,39.80
2023-04-07T09:01:06.383Z,41.80
2023-04-07T09:02:07.101Z,40.60
2023-04-07T09:03:10.822Z,41.00
2023-04-07T09:04:08.293Z,41.60
2023-04-07T09:05:09.140Z,41.50
2023-04-07T09:06:09.900Z,44.30
2023-04-07T09:07:10.604Z,42.50
2023-04-07T09:08:11.335Z,41.90
2023-04-07T09:09:13.075Z,39.80
2023-04-07T09:10:12.664Z,41.50
2023-04-07T09:11:13.348Z,40.20
2023-04-07T09:12:14.070Z,41.30
2023-04-07T09:13:14.751Z,42.30
2023-04-07T09:14:15.459Z,42.10
2023-04-07T09:15:38.910Z,40.50
2023-04-07T09:16:16.719Z,40.50
2023-04-07T09:17:17.382Z,37.80
2023-04-07T09:18:18.093Z,39.60
2023-04-07T09:19:18.802Z,38.90
2023-04-07T09:20:19.512Z,39.80
2023-04-07T09:21:20.216Z,40.70
2023-04-07T09:22:20.928Z,40.20
2023-04-07T09:23:21.648Z,39.60
2023-04-07T09:24:22.338Z,38.70
2023-04-07T09:25:23.047Z,40.00
2023-04-07T09:26:23.765Z,39.10
2023-04-07T09:27:24.475Z,37.60
2023-04-07T09:28:25.161Z,39.60
2023-04-07T09:29:25.864Z,37.80
2023-04-07T09:30:26.567Z,38.30
2023-04-07T09:31:27.675Z,40.30
2023-04-07T09:32:27.883Z,41.70
2023-04-07T09:33:28.562Z,40.70
2023-04-07T09:34:29.282Z,42.00
2023-04-07T09:35:30.113Z,38.80
2023-04-07T09:36:30.850Z,39.10
2023-04-07T09:39:20.424Z,36.30
2023-04-07T09:40:21.070Z,37.50
2023-04-07T09:41:21.831Z,37.40
2023-04-07T09:42:22.515Z,35.70
2023-04-07T09:43:23.204Z,37.30
2023-04-07T09:44:23.899Z,34.70
2023-04-07T09:45:34.096Z,37.20
2023-04-07T09:46:26.367Z,35.50
2023-04-07T09:47:25.822Z,35.50
2023-04-07T09:48:26.508Z,33.90
2023-04-07T09:49:27.236Z,35.70
2023-04-07T09:50:27.932Z,36.90
2023-04-07T09:51:28.633Z,36.70
2023-04-07T09:52:29.338Z,38.70
2023-04-07T09:53:30.052Z,38.00
2023-04-07T09:54:30.788Z,38.60
2023-04-07T09:55:31.447Z,37.50
2023-04-07T09:56:32.152Z,36.50
2023-04-07T09:57:32.860Z,36.30
2023-04-07T09:58:33.581Z,35.10
2023-04-07T09:59:34.325Z,34.50
2023-04-07T10:00:35.013Z,34.90
2023-04-07T10:01:35.819Z,35.20
2023-04-07T10:02:36.677Z,32.70
2023-04-07T10:03:37.499Z,33.70
2023-04-07T10:04:38.249Z,33.40
2023-04-07T10:05:38.992Z,34.50
2023-04-07T10:06:39.663Z,35.30
2023-04-07T10:07:42.443Z,31.80
2023-04-07T10:08:40.859Z,33.60
2023-04-07T10:09:41.595Z,33.50
2023-04-07T10:10:42.238Z,36.00
2023-04-07T10:11:42.948Z,33.90
2023-04-07T10:12:43.651Z,34.80
2023-04-07T10:13:44.387Z,36.10
2023-04-07T10:14:45.084Z,33.60
2023-04-07T10:15:45.774Z,33.10
2023-04-07T10:16:46.574Z,31.20
2023-04-07T10:17:47.246Z,31.10
2023-04-07T10:18:47.930Z,32.30
2023-04-07T10:19:48.663Z,31.60
2023-04-07T10:20:49.429Z,33.30
2023-04-07T10:21:50.097Z,32.50
2023-04-07T10:22:50.808Z,34.70
2023-04-07T10:23:51.582Z,32.40
2023-04-07T10:24:52.244Z,33.80
2023-04-07T10:25:52.965Z,33.80
2023-04-07T10:26:53.679Z,34.70
2023-04-07T10:27:54.375Z,37.00
2023-04-07T10:28:55.161Z,36.90
2023-04-07T10:29:56.108Z,37.10
2023-04-07T10:30:56.320Z,35.90
2023-04-07T10:31:57.026Z,36.20
2023-04-07T10:32:57.782Z,34.30
2023-04-07T10:33:58.458Z,31.20
2023-04-07T10:34:59.184Z,29.40
2023-04-07T10:35:59.971Z,32.90
2023-04-07T10:37:00.625Z,32.90
2023-04-07T10:38:01.340Z,34.70
2023-04-07T10:39:02.023Z,35.10
2023-04-07T10:40:03.147Z,38.00
2023-04-07T10:41:03.321Z,36.50
2023-04-07T10:42:04.039Z,38.10
2023-04-07T10:43:04.801Z,37.00
2023-04-07T10:44:05.521Z,36.60
2023-04-07T10:45:06.228Z,35.50
2023-04-07T10:46:06.965Z,36.60
2023-04-07T10:47:07.631Z,37.40
2023-04-07T10:48:08.379Z,36.80
2023-04-07T10:49:09.065Z,38.00
2023-04-07T10:50:09.817Z,38.40
2023-04-07T10:51:10.518Z,37.70
2023-04-07T10:52:11.260Z,37.00
2023-04-07T10:53:11.974Z,37.50
2023-04-07T10:54:12.678Z,37.80
2023-04-07T10:55:13.401Z,37.70
2023-04-07T10:56:14.104Z,38.30
2023-04-07T10:57:14.809Z,39.30
2023-04-07T10:58:15.514Z,40.00
2023-04-07T10:59:16.305Z,40.10
2023-04-07T11:00:38.109Z,40.50
2023-04-07T11:01:17.828Z,40.50
2023-04-07T11:02:18.638Z,39.20
2023-04-07T11:03:19.458Z,39.50
2023-04-07T11:04:20.305Z,39.70
2023-04-07T11:05:20.974Z,41.10
2023-04-07T11:06:21.688Z,42.00
2023-04-07T11:07:22.405Z,43.70
2023-04-07T11:08:23.115Z,44.90
2023-04-07T11:09:23.894Z,43.90
2023-04-07T11:10:24.553Z,42.80
2023-04-07T11:11:25.274Z,40.10
2023-04-07T11:12:25.975Z,41.30
2023-04-07T11:13:26.681Z,40.90
2023-04-07T11:14:27.419Z,39.90
2023-04-07T11:15:28.087Z,41.90
2023-04-07T11:16:28.892Z,39.10
2023-04-07T11:17:29.618Z,44.40
2023-04-07T11:18:30.309Z,43.90
2023-04-07T11:19:31.016Z,44.30
2023-04-07T11:20:31.721Z,44.10
2023-04-07T11:21:32.618Z,40.10
2023-04-07T11:22:33.339Z,38.30
2023-04-07T11:23:34.028Z,36.80
2023-04-07T11:24:55.746Z,38.00
2023-04-07T11:25:35.479Z,35.90
2023-04-07T11:26:36.629Z,35.80
2023-04-07T11:27:36.837Z,34.90
2023-04-07T11:28:37.551Z,33.80
2023-04-07T11:29:38.270Z,33.60
2023-04-07T11:30:38.956Z,35.40
2023-04-07T11:31:40.292Z,34.60
2023-04-07T11:32:40.501Z,33.30
2023-04-07T11:33:41.183Z,35.00
2023-04-07T11:34:41.903Z,35.70
2023-04-07T11:35:42.631Z,37.40
2023-04-07T11:36:43.617Z,33.60
2023-04-07T11:37:43.901Z,32.60
2023-04-07T11:38:47.093Z,32.60
2023-04-07T11:39:45.373Z,31.60
2023-04-07T11:40:46.090Z,30.90
2023-04-07T11:41:47.132Z,32.70
2023-04-07T11:42:47.339Z,32.60
2023-04-07T11:43:48.184Z,34.90
2023-04-07T11:44:48.964Z,33.40
2023-04-07T11:45:49.642Z,34.00
2023-04-07T11:47:11.647Z,34.20
2023-04-07T11:47:51.377Z,35.80
2023-04-07T11:48:52.060Z,34.90
2023-04-07T11:49:52.751Z,34.00
2023-04-07T11:50:53.461Z,35.60
2023-04-07T11:51:54.187Z,35.60
2023-04-07T11:52:54.922Z,37.20
2023-04-07T11:53:55.615Z,39.00
2023-04-07T11:54:56.324Z,40.80
2023-04-07T11:55:57.054Z,41.20
2023-04-07T11:56:57.716Z,40.20
2023-04-07T11:57:58.431Z,37.20
2023-04-07T11:58:59.161Z,35.40
2023-04-07T11:59:59.873Z,33.80
2023-04-07T12:01:00.565Z,33.50
2023-04-07T12:02:01.374Z,36.10
2023-04-07T12:03:02.273Z,35.60
2023-04-07T12:04:03.074Z,32.80
2023-04-07T12:05:03.474Z,33.30
2023-04-07T12:06:04.221Z,33.00
2023-04-07T12:07:27.387Z,32.90
2023-04-07T12:08:05.495Z,33.80
2023-04-07T12:09:06.191Z,31.10
2023-04-07T12:10:06.894Z,30.30
2023-04-07T12:11:07.628Z,30.70
2023-04-07T12:12:08.393Z,31.40
2023-04-07T12:13:09.134Z,29.00
2023-04-07T12:14:09.834Z,29.40
2023-04-07T12:15:10.555Z,29.30
2023-04-07T12:16:11.264Z,28.80
2023-04-07T12:17:11.957Z,27.30
2023-04-07T12:18:12.667Z,28.50
2023-04-07T12:19:13.370Z,30.20
2023-04-07T12:20:14.082Z,31.80
2023-04-07T12:21:14.793Z,35.40
2023-04-07T12:22:15.515Z,34.50
2023-04-07T12:23:16.224Z,35.10
2023-04-07T12:24:37.932Z,35.50
2023-04-07T12:25:17.632Z,36.90
2023-04-07T12:26:18.358Z,38.00
2023-04-07T12:27:20.136Z,39.70
2023-04-07T12:28:19.934Z,39.70
2023-04-07T12:29:20.659Z,38.80
2023-04-07T12:30:21.368Z,38.60
2023-04-07T12:31:22.093Z,40.20
2023-04-07T12:32:22.778Z,41.20
2023-04-07T12:33:23.626Z,41.70
2023-04-07T12:34:24.323Z,42.70
2023-04-07T12:35:25.123Z,43.30
2023-04-07T12:36:25.836Z,43.30
2023-04-07T12:37:26.563Z,41.40
2023-04-07T12:38:27.624Z,40.00
2023-04-07T12:39:27.830Z,39.50
2023-04-07T12:40:28.534Z,38.80
2023-04-07T12:41:29.257Z,37.10
2023-04-07T12:42:29.939Z,37.60
2023-04-07T12:43:52.541Z,37.20
2023-04-07T12:44:31.388Z,35.80
2023-04-07T12:45:32.143Z,33.80
2023-04-07T12:46:32.840Z,34.70
2023-04-07T12:47:33.573Z,33.20
2023-04-07T12:48:34.214Z,34.40
2023-04-07T12:49:34.924Z,36.40
2023-04-07T12:50:35.626Z,34.00
2023-04-07T12:51:36.355Z,37.30
2023-04-07T12:52:37.033Z,36.10
2023-04-07T12:53:37.734Z,37.00
2023-04-07T12:54:38.453Z,39.10
2023-04-07T12:55:39.161Z,37.10
2023-04-07T12:56:39.909Z,39.80
2023-04-07T12:57:40.594Z,39.40
2023-04-07T12:58:41.300Z,40.10
2023-04-07T12:59:42.122Z,39.00
2023-04-07T13:00:42.858Z,35.30
2023-04-07T13:01:43.574Z,33.80
2023-04-07T13:02:44.415Z,34.40
2023-04-07T13:03:45.296Z,33.40
2023-04-07T13:04:46.125Z,32.20
2023-04-07T13:05:46.832Z,29.40
2023-04-07T13:06:47.537Z,30.30
2023-04-07T13:07:49.709Z,33.70
2023-04-07T13:09:10.049Z,34.10
2023-04-07T13:09:50.133Z,36.20